createdAt,value
2023-04-13T00:02:43.177Z,8.75
2023-04-13T00:08:06.010Z,8.78
2023-04-13T00:13:27.754Z,8.72
2023-04-13T00:18:50.664Z,8.71
2023-04-13T00:24:12.610Z,8.58
2023-04-13T00:29:34.329Z,8.58
2023-04-13T00:34:56.191Z,8.68
2023-04-13T00:40:18.595Z,8.45
2023-04-13T00:45:41.430Z,8.52
2023-04-13T00:51:03.859Z,8.56
2023-04-13T00:56:27.272Z,8.44
2023-04-13T01:01:56.346Z,8.62
2023-04-13T01:07:27.395Z,8.38
2023-04-13T01:13:18.789Z,8.35
2023-04-13T01:18:41.794Z,8.56
2023-04-13T01:24:32.390Z,8.59
2023-04-13T01:29:56.993Z,8.53
2023-04-13T01:35:22.862Z,8.48
2023-04-13T01:40:44.832Z,8.48
2023-04-13T01:46:06.760Z,8.39
2023-04-13T01:51:34.664Z,8.40
2023-04-13T01:56:57.127Z,8.24
2023-04-13T02:02:19.023Z,8.19
2023-04-13T02:07:42.932Z,8.07
2023-04-13T02:13:04.696Z,8.08
2023-04-13T02:18:26.936Z,8.28
2023-04-13T02:23:48.740Z,7.71
2023-04-13T02:29:10.470Z,7.87
2023-04-13T02:34:33.967Z,8.04
2023-04-13T02:39:55.871Z,8.06
2023-04-13T02:45:18.297Z,8.02
2023-04-13T02:50:39.996Z,7.97
2023-04-13T02:56:02.205Z,8.02
2023-04-13T03:01:25.043Z,7.90
2023-04-13T03:06:47.082Z,7.76
2023-04-13T03:12:09.133Z,7.84
2023-04-13T03:17:31.077Z,7.90
2023-04-13T03:22:53.712Z,8.00
2023-04-13T03:28:15.760Z,7.87
2023-04-13T03:33:37.432Z,7.80
2023-04-13T03:38:59.480Z,7.75
2023-04-13T03:44:21.588Z,7.66
2023-04-13T03:49:43.308Z,7.70
2023-04-13T03:55:05.464Z,7.81
2023-04-13T04:00:27.583Z,7.75
2023-04-13T04:05:49.283Z,7.92
2023-04-13T04:11:11.006Z,7.92
2023-04-13T04:16:32.771Z,8.13
2023-04-13T04:21:57.796Z,8.16
2023-04-13T04:27:19.961Z,8.13
2023-04-13T04:32:41.736Z,8.24
2023-04-13T04:38:04.260Z,8.32
2023-04-13T04:43:27.262Z,8.43
2023-04-13T04:48:51.094Z,8.47
2023-04-13T04:54:12.893Z,8.43
2023-04-13T04:59:34.616Z,8.35
2023-04-13T05:04:57.389Z,8.15
2023-04-13T05:10:19.202Z,8.42
2023-04-13T05:15:40.933Z,8.37
2023-04-13T05:21:02.704Z,8.26
2023-04-13T05:26:25.523Z,8.39
2023-04-13T05:31:47.391Z,8.30
2023-04-13T05:37:10.518Z,8.50
2023-04-13T05:42:32.256Z,8.49
2023-04-13T05:47:54.043Z,8.48
2023-04-13T05:53:15.826Z,8.61
2023-04-13T05:58:39.011Z,8.56
2023-04-13T06:04:02.381Z,8.69
2023-04-13T06:09:24.292Z,8.61
2023-04-13T06:14:45.975Z,8.81
2023-04-13T06:20:08.845Z,8.82
2023-04-13T06:25:31.408Z,8.81
2023-04-13T06:30:53.202Z,8.75
2023-04-13T06:36:15.078Z,8.66
2023-04-13T06:41:43.149Z,8.54
